Time;durP1;ratioP1;P1;durP2;ratioP2;P2;SDS_P1;SDS_P2;PMS_P1;PMS_P2;Temp;Humidity;BMP_temperature;BMP_pressure;BME280_temperature;BME280_humidity;BME280_pressure;Samples;Min_cycle;Max_cycle;Signal;HPM_P1;HPM_P2
2021/07/25 00:01:25;;;;;;;535.70;331.30;;;16.00;99.90;;;;;;8297055;28;20064;-64
2021/07/25 00:05:26;;;;;;;533.47;324.77;;;15.90;99.90;;;;;;8296888;28;20034;-64
2021/07/25 00:09:26;;;;;;;532.78;328.08;;;15.70;99.90;;;;;;8296780;28;20036;-64
2021/07/25 00:13:27;;;;;;;531.38;327.13;;;16.00;99.90;;;;;;8295002;28;20036;-64
2021/07/25 00:17:27;;;;;;;531.28;322.88;;;16.20;99.90;;;;;;8296486;28;20271;-64
2021/07/25 00:21:28;;;;;;;530.63;323.30;;;15.90;99.90;;;;;;8296154;28;20396;-64
2021/07/25 00:25:29;;;;;;;528.97;325.08;;;15.80;99.90;;;;;;8296379;28;20033;-64
2021/07/25 00:29:30;;;;;;;551.10;332.63;;;16.10;99.90;;;;;;8277621;28;20448;-64
2021/07/25 00:33:32;;;;;;;541.83;332.92;;;16.00;99.90;;;;;;8295436;28;20034;-64
2021/07/25 00:37:32;;;;;;;543.35;329.33;;;16.00;99.90;;;;;;8295091;28;20087;-64
2021/07/25 00:41:33;;;;;;;543.42;330.35;;;16.00;99.90;;;;;;8295480;28;20085;-64
2021/07/25 00:45:34;;;;;;;544.25;336.30;;;16.20;99.90;;;;;;8295549;28;20132;-64
2021/07/25 00:49:36;;;;;;;549.95;335.63;;;16.30;99.90;;;;;;8295293;28;20496;-64
2021/07/25 00:53:39;;;;;;;544.83;334.30;;;16.20;99.90;;;;;;8295024;28;20032;-64
2021/07/25 00:57:40;;;;;;;545.33;337.95;;;16.20;99.90;;;;;;8277503;28;20045;-64
2021/07/25 01:01:41;;;;;;;547.65;335.85;;;16.10;99.90;;;;;;8295161;28;20026;-64
2021/07/25 01:06:08;;;;;;;547.30;339.98;;;16.10;99.90;;;;;;8294725;28;20032;-64
2021/07/25 01:10:22;;;;;;;531.85;328.63;;;16.10;99.90;;;;;;8294579;28;20034;-63
2021/07/25 01:14:32;;;;;;;536.15;330.75;;;16.50;99.90;;;;;;8294087;28;20073;-63
2021/07/25 01:18:43;;;;;;;538.42;330.98;;;16.60;99.90;;;;;;8294594;28;20038;-64
2021/07/25 01:22:52;;;;;;;539.70;331.30;;;16.30;99.90;;;;;;8292851;28;20022;-63
2021/07/25 01:26:52;;;;;;;536.35;329.38;;;16.30;99.90;;;;;;8294358;28;20464;-64
2021/07/25 01:30:58;;;;;;;540.95;334.42;;;16.40;99.90;;;;;;8293844;28;20037;-63
2021/07/25 01:35:01;;;;;;;550.33;339.15;;;16.30;99.90;;;;;;8293933;28;20021;-63
2021/07/25 01:39:02;;;;;;;549.00;339.88;;;16.30;99.90;;;;;;8293602;28;20113;-63
2021/07/25 01:43:03;;;;;;;588.17;377.92;;;16.10;99.90;;;;;;8290938;28;20054;-63
2021/07/25 01:47:04;;;;;;;581.83;367.27;;;16.10;99.90;;;;;;8293827;28;20022;-64
2021/07/25 01:51:05;;;;;;;579.97;368.55;;;16.30;99.90;;;;;;8293335;28;20206;-64
2021/07/25 01:55:06;;;;;;;556.30;344.42;;;16.50;99.90;;;;;;8293479;28;20037;-63
2021/07/25 01:59:07;;;;;;;567.60;355.77;;;16.60;99.90;;;;;;8293132;28;20516;-64
2021/07/25 02:03:07;;;;;;;541.38;329.70;;;16.50;99.90;;;;;;8292882;28;20033;-63
2021/07/25 02:07:08;;;;;;;566.85;356.52;;;16.20;99.90;;;;;;8293126;28;20080;-64
2021/07/25 02:11:09;;;;;;;565.92;357.42;;;16.10;99.90;;;;;;8292840;28;20040;-63
2021/07/25 02:15:11;;;;;;;570.45;363.58;;;16.30;99.90;;;;;;8293174;28;20401;-63
2021/07/25 02:19:11;;;;;;;521.78;311.85;;;16.30;99.90;;;;;;8293088;28;20108;-63
2021/07/25 02:23:12;;;;;;;527.42;317.05;;;16.50;99.90;;;;;;8292569;28;20524;-64
2021/07/25 02:27:12;;;;;;;530.97;319.08;;;16.40;99.90;;;;;;8292429;28;20120;-63
2021/07/25 02:31:13;;;;;;;535.25;323.77;;;16.50;99.90;;;;;;8291689;28;20502;-63
2021/07/25 02:35:13;;;;;;;535.28;323.45;;;16.30;99.90;;;;;;8292588;28;20030;-63
2021/07/25 02:39:14;;;;;;;532.97;323.10;;;16.20;99.90;;;;;;8292429;28;20057;-64
2021/07/25 02:43:14;;;;;;;534.78;322.45;;;16.20;99.90;;;;;;8292376;28;20113;-64
2021/07/25 02:47:15;;;;;;;543.55;326.92;;;16.40;99.90;;;;;;8292542;28;20036;-63
2021/07/25 02:51:15;;;;;;;537.53;331.73;;;16.60;99.90;;;;;;8293466;28;20029;-63
2021/07/25 02:55:16;;;;;;;532.58;321.13;;;16.40;99.90;;;;;;8287656;28;20480;-64
2021/07/25 02:59:17;;;;;;;529.80;318.77;;;16.50;99.90;;;;;;8281089;28;20404;-63
2021/07/25 03:03:17;;;;;;;529.78;322.85;;;16.60;99.90;;;;;;8292130;28;20030;-64
2021/07/25 03:07:18;;;;;;;533.92;324.55;;;16.60;99.90;;;;;;8274270;28;20034;-64
2021/07/25 03:11:21;;;;;;;534.13;328.45;;;16.50;99.90;;;;;;8279736;28;20112;-64
2021/07/25 03:15:21;;;;;;;534.45;322.17;;;16.50;99.90;;;;;;8272384;28;20053;-63
2021/07/25 03:19:22;;;;;;;537.92;324.83;;;16.60;99.90;;;;;;8273589;28;20386;-64
2021/07/25 03:23:22;;;;;;;537.60;322.35;;;16.50;99.90;;;;;;8283684;28;20105;-63
2021/07/25 03:27:23;;;;;;;536.30;323.20;;;16.70;99.90;;;;;;8275744;28;20034;-63
2021/07/25 03:31:24;;;;;;;533.72;323.70;;;16.60;99.90;;;;;;8265024;28;20081;-63
2021/07/25 03:35:25;;;;;;;536.70;326.63;;;16.40;99.90;;;;;;8289009;28;20029;-63
2021/07/25 03:39:26;;;;;;;533.40;324.48;;;16.50;99.90;;;;;;8297245;28;20037;-64
2021/07/25 03:43:28;;;;;;;539.88;325.77;;;16.60;99.90;;;;;;8296989;28;20026;-63
2021/07/25 03:47:28;;;;;;;536.03;326.38;;;16.60;99.90;;;;;;8297292;28;20025;-63
2021/07/25 03:51:30;;;;;;;543.22;318.33;;;16.50;99.90;;;;;;8285475;28;20037;-64
2021/07/25 03:55:31;;;;;;;532.45;322.60;;;16.30;99.90;;;;;;8297297;28;20017;-63
2021/07/25 03:59:31;;;;;;;533.80;321.35;;;16.40;99.90;;;;;;8296847;28;20037;-63
2021/07/25 04:03:32;;;;;;;532.35;324.55;;;16.50;99.90;;;;;;8282393;28;20370;-63
2021/07/25 04:07:33;;;;;;;538.90;330.33;;;16.40;99.90;;;;;;8284150;28;20034;-64
2021/07/25 04:11:33;;;;;;;531.38;320.80;;;16.30;99.90;;;;;;8274016;28;20053;-64
2021/07/25 04:15:37;;;;;;;532.70;323.45;;;16.30;99.90;;;;;;8289633;28;20022;-64
2021/07/25 04:19:38;;;;;;;531.55;323.52;;;16.40;99.90;;;;;;8296308;28;20489;-64
2021/07/25 04:23:40;;;;;;;524.72;313.77;;;16.50;99.90;;;;;;8282834;28;20109;-63
2021/07/25 04:27:41;;;;;;;532.42;321.33;;;16.40;99.90;;;;;;8292938;28;20030;-68
2021/07/25 04:31:41;;;;;;;531.88;322.13;;;16.30;99.90;;;;;;8284523;28;20034;-68
2021/07/25 04:35:43;;;;;;;524.17;316.42;;;16.50;99.90;;;;;;8285958;28;20035;-68
2021/07/25 04:39:44;;;;;;;533.35;324.42;;;16.80;99.90;;;;;;8254285;28;20034;-67
2021/07/25 04:43:44;;;;;;;530.42;320.73;;;16.70;99.90;;;;;;8274148;28;20492;-67
2021/07/25 04:48:01;;;;;;;530.65;326.20;;;16.60;99.90;;;;;;8292354;28;20592;-67
2021/07/25 04:52:03;;;;;;;532.58;324.05;;;16.80;99.90;;;;;;8293237;28;20121;-68
2021/07/25 04:56:07;;;;;;;537.28;324.60;;;16.80;99.90;;;;;;8260107;28;20154;-69
2021/07/25 05:00:13;;;;;;;532.33;322.80;;;17.00;99.90;;;;;;8262181;28;20080;-67
2021/07/25 05:04:15;;;;;;;543.90;334.20;;;16.90;99.90;;;;;;8276572;28;20034;-68
2021/07/25 05:08:16;;;;;;;543.00;323.58;;;16.90;99.90;;;;;;8259714;28;20112;-70
2021/07/25 05:12:29;;;;;;;533.83;323.15;;;17.00;99.90;;;;;;8267063;28;20087;-68
2021/07/25 05:16:38;;;;;;;532.60;319.80;;;17.00;99.90;;;;;;8246290;28;20026;-66
2021/07/25 05:20:57;;;;;;;529.95;320.20;;;17.00;99.90;;;;;;8271392;28;20492;-67
2021/07/25 05:25:01;;;;;;;531.50;324.85;;;17.20;99.90;;;;;;8272892;28;20029;-67
2021/07/25 05:29:03;;;;;;;532.15;324.90;;;17.30;99.90;;;;;;8262935;28;20042;-68
2021/07/25 05:33:03;;;;;;;525.83;320.63;;;17.40;99.90;;;;;;8247904;28;20040;-67
2021/07/25 05:37:04;;;;;;;528.33;322.02;;;17.50;99.90;;;;;;8292585;28;20117;-68
2021/07/25 05:41:04;;;;;;;528.55;332.17;;;17.70;99.90;;;;;;8292302;28;20045;-69
2021/07/25 05:45:10;;;;;;;530.88;328.88;;;17.80;99.90;;;;;;8279160;28;20041;-69
2021/07/25 05:49:10;;;;;;;527.88;329.30;;;17.90;99.90;;;;;;8276742;28;20105;-67
2021/07/25 05:53:11;;;;;;;529.63;332.35;;;18.00;99.90;;;;;;8261114;28;20077;-68
2021/07/25 05:57:11;;;;;;;527.80;325.58;;;17.90;99.90;;;;;;8283600;28;20038;-68
2021/07/25 06:01:12;;;;;;;529.13;334.13;;;17.90;99.90;;;;;;8273847;28;20038;-69
2021/07/25 06:05:12;;;;;;;526.92;330.08;;;17.90;99.90;;;;;;8277192;28;20034;-67
2021/07/25 06:09:13;;;;;;;521.67;324.65;;;18.00;99.90;;;;;;8285659;28;20034;-67
2021/07/25 06:13:14;;;;;;;524.33;325.17;;;18.00;99.90;;;;;;8259855;28;20042;-69
2021/07/25 06:17:14;;;;;;;523.85;329.15;;;18.30;99.90;;;;;;8260509;28;20022;-67
2021/07/25 06:21:16;;;;;;;529.88;339.00;;;18.70;99.90;;;;;;8259993;28;20110;-68
2021/07/25 06:25:20;;;;;;;530.03;342.25;;;19.00;99.90;;;;;;8285358;28;20191;-67
2021/07/25 06:29:21;;;;;;;535.92;352.95;;;19.30;99.90;;;;;;8279820;28;20092;-69
2021/07/25 06:33:22;;;;;;;534.67;358.75;;;19.70;99.90;;;;;;8281678;28;20030;-67
2021/07/25 06:37:22;;;;;;;537.03;362.52;;;20.00;99.90;;;;;;8275193;28;20037;-68
2021/07/25 06:41:23;;;;;;;531.95;360.13;;;20.20;99.90;;;;;;8274303;28;20030;-68
2021/07/25 06:45:24;;;;;;;533.63;367.17;;;20.20;99.90;;;;;;8291801;28;20056;-67
2021/07/25 06:49:25;;;;;;;532.72;366.50;;;20.30;99.90;;;;;;8275581;28;20061;-68
2021/07/25 06:53:28;;;;;;;535.70;372.73;;;20.30;99.90;;;;;;8260133;28;20034;-68
2021/07/25 06:57:29;;;;;;;533.20;372.33;;;20.70;99.90;;;;;;8251787;28;20084;-68
2021/07/25 07:01:29;;;;;;;538.47;383.65;;;20.70;99.90;;;;;;8242443;28;20022;-66
2021/07/25 07:05:31;;;;;;;537.75;390.02;;;21.50;99.90;;;;;;8278118;28;20065;-66
2021/07/25 07:09:32;;;;;;;541.20;399.20;;;22.00;99.90;;;;;;8259596;28;20069;-66
2021/07/25 07:13:32;;;;;;;545.38;420.55;;;22.30;99.90;;;;;;8279589;28;20038;-66
2021/07/25 07:17:33;;;;;;;543.35;420.85;;;22.60;99.90;;;;;;8284572;28;20026;-67
2021/07/25 07:21:33;;;;;;;543.45;425.63;;;22.20;99.90;;;;;;8283003;28;20075;-67
2021/07/25 07:25:40;;;;;;;544.70;425.33;;;22.00;99.90;;;;;;8286291;28;20056;-66
2021/07/25 07:29:42;;;;;;;543.33;425.45;;;21.90;99.90;;;;;;8285141;28;20110;-67
2021/07/25 07:33:42;;;;;;;547.20;436.20;;;21.90;99.90;;;;;;8261520;28;20141;-68
2021/07/25 07:37:43;;;;;;;546.50;432.90;;;22.10;99.90;;;;;;8286156;28;20038;-69
2021/07/25 07:41:43;;;;;;;544.42;435.52;;;22.20;99.90;;;;;;8264478;28;20061;-67
2021/07/25 07:45:44;;;;;;;540.35;422.95;;;22.10;99.90;;;;;;8270853;28;20030;-70
2021/07/25 07:49:45;;;;;;;541.00;417.52;;;22.10;99.90;;;;;;8280334;28;20025;-67
2021/07/25 07:53:46;;;;;;;534.25;407.45;;;21.90;99.90;;;;;;8275322;28;20493;-67
2021/07/25 07:57:46;;;;;;;538.90;412.08;;;22.30;99.90;;;;;;8276668;28;20113;-67
2021/07/25 08:01:47;;;;;;;540.25;416.33;;;22.30;99.90;;;;;;8271013;28;20046;-67
2021/07/25 08:05:48;;;;;;;539.45;424.13;;;22.50;99.90;;;;;;8276480;28;20033;-67
2021/07/25 08:09:48;;;;;;;540.00;430.73;;;23.10;99.90;;;;;;8275654;28;20022;-67
2021/07/25 08:13:49;;;;;;;539.58;434.13;;;23.40;99.90;;;;;;8274725;28;20094;-67
2021/07/25 08:17:50;;;;;;;540.05;437.83;;;23.20;99.90;;;;;;8275245;28;20105;-67
2021/07/25 08:21:50;;;;;;;538.15;428.88;;;23.20;99.90;;;;;;8256850;28;20428;-67
2021/07/25 08:25:51;;;;;;;535.88;436.00;;;23.10;99.90;;;;;;8273882;28;20030;-69
2021/07/25 08:29:51;;;;;;;538.65;436.42;;;23.20;99.90;;;;;;8276807;28;20042;-68
2021/07/25 08:33:52;;;;;;;540.28;441.92;;;23.20;99.90;;;;;;8262301;28;20026;-68
2021/07/25 08:37:53;;;;;;;540.08;444.52;;;23.30;99.90;;;;;;8269124;28;20027;-65
2021/07/25 08:42:05;;;;;;;538.30;436.75;;;23.00;99.90;;;;;;8272831;28;20112;-65
2021/07/25 08:46:15;;;;;;;536.35;431.20;;;23.00;99.90;;;;;;8272174;28;20029;-66
2021/07/25 08:50:16;;;;;;;537.80;435.27;;;23.30;99.90;;;;;;8267953;28;20037;-65
2021/07/25 08:54:18;;;;;;;537.92;441.83;;;23.70;99.90;;;;;;8286828;28;20062;-64
2021/07/25 08:58:22;;;;;;;534.40;434.75;;;24.30;99.90;;;;;;8290418;28;20122;-65
2021/07/25 09:02:29;;;;;;;537.22;442.45;;;24.10;99.90;;;;;;8293815;28;20575;-65
2021/07/25 09:06:47;;;;;;;543.47;466.30;;;24.60;99.90;;;;;;8279360;28;20053;-64
2021/07/25 09:10:49;;;;;;;547.67;484.35;;;25.20;99.90;;;;;;8276251;28;20062;-65
2021/07/25 09:14:57;;;;;;;549.95;489.25;;;25.50;99.90;;;;;;8262296;28;20018;-65
2021/07/25 09:18:57;;;;;;;556.08;495.60;;;25.50;99.90;;;;;;8262407;28;20500;-66
2021/07/25 09:23:13;;;;;;;551.20;491.17;;;25.60;99.90;;;;;;8289640;28;20045;-66
2021/07/25 09:27:17;;;;;;;569.67;508.83;;;25.80;99.90;;;;;;8275498;28;20060;-65
2021/07/25 09:31:28;;;;;;;576.75;515.97;;;26.60;99.90;;;;;;8285593;28;20401;-66
2021/07/25 09:35:39;;;;;;;566.53;506.20;;;26.90;99.90;;;;;;8293255;28;20018;-65
2021/07/25 09:39:55;;;;;;;574.50;514.13;;;26.40;99.90;;;;;;8279510;28;20025;-65
2021/07/25 09:44:11;;;;;;;604.08;542.90;;;27.20;99.90;;;;;;8274632;28;20577;-65
2021/07/25 09:48:13;;;;;;;592.00;531.53;;;27.60;99.90;;;;;;8286792;28;20026;-65
2021/07/25 09:52:13;;;;;;;599.65;538.95;;;27.70;99.90;;;;;;8279130;28;20501;-65
2021/07/25 09:56:16;;;;;;;603.10;542.17;;;27.60;99.90;;;;;;8315509;28;20044;-65
2021/07/25 10:00:17;;;;;;;600.15;539.75;;;27.20;99.90;;;;;;8306804;28;20116;-65
2021/07/25 10:04:20;;;;;;;597.65;537.17;;;27.40;99.90;;;;;;8292097;28;20037;-65
2021/07/25 10:08:21;;;;;;;600.20;539.60;;;27.40;99.90;;;;;;8289243;28;20175;-65
2021/07/25 10:12:22;;;;;;;596.28;535.67;;;27.20;99.90;;;;;;8261144;28;20037;-65
2021/07/25 10:16:22;;;;;;;582.53;522.22;;;27.00;99.90;;;;;;8272812;28;20030;-64
2021/07/25 10:20:24;;;;;;;571.83;512.13;;;26.50;99.90;;;;;;8269194;28;20706;-65
2021/07/25 10:24:25;;;;;;;587.47;527.67;;;26.00;99.90;;;;;;8278663;28;20484;-66
2021/07/25 10:28:30;;;;;;;579.25;519.47;;;25.80;99.90;;;;;;8273450;28;20021;-73
2021/07/25 10:32:42;;;;;;;568.58;509.10;;;25.60;99.90;;;;;;8273149;28;20027;-73
2021/07/25 10:36:45;;;;;;;591.25;530.63;;;25.60;99.90;;;;;;8276535;28;20099;-72
2021/07/25 10:40:48;;;;;;;588.03;527.85;;;25.70;99.90;;;;;;8256444;28;20023;-72
2021/07/25 10:44:50;;;;;;;603.08;542.10;;;26.00;99.90;;;;;;8291695;28;20025;-66
2021/07/25 10:49:00;;;;;;;579.13;519.08;;;26.40;99.90;;;;;;8262196;28;20041;-64
2021/07/25 10:53:02;;;;;;;586.50;526.53;;;26.90;99.90;;;;;;8276584;28;20057;-64
2021/07/25 10:57:06;;;;;;;598.50;538.05;;;27.50;99.90;;;;;;8269961;28;20031;-65
2021/07/25 11:01:07;;;;;;;605.22;545.03;;;27.50;99.90;;;;;;8277167;28;20604;-64
2021/07/25 11:05:08;;;;;;;602.90;542.25;;;27.50;99.90;;;;;;8252437;28;20030;-64
2021/07/25 11:09:08;;;;;;;596.70;536.08;;;27.30;99.90;;;;;;8263186;28;20487;-64
2021/07/25 11:13:09;;;;;;;556.53;497.30;;;25.90;99.90;;;;;;8268029;28;20030;-64
2021/07/25 11:17:45;;;;;;;551.08;491.50;;;25.30;99.90;;;;;;8289964;28;20092;-64
2021/07/25 11:21:53;;;;;;;557.08;497.80;;;25.70;99.90;;;;;;8278473;28;20042;-64
2021/07/25 11:25:54;;;;;;;561.45;501.65;;;26.30;99.90;;;;;;8280421;28;20030;-65
2021/07/25 11:29:54;;;;;;;562.00;502.85;;;26.60;99.90;;;;;;8284055;28;20030;-64
2021/07/25 11:33:55;;;;;;;550.25;491.30;;;25.90;99.90;;;;;;8281414;28;20034;-64
2021/07/25 11:37:56;;;;;;;539.17;480.35;;;25.00;99.90;;;;;;8287701;28;20080;-64
2021/07/25 11:41:57;;;;;;;542.17;483.60;;;25.20;99.90;;;;;;8295266;28;20286;-64
2021/07/25 11:45:58;;;;;;;546.33;487.55;;;25.60;99.90;;;;;;8282960;28;20026;-64
2021/07/25 11:49:59;;;;;;;548.38;489.70;;;26.10;99.90;;;;;;8277990;28;20045;-64
2021/07/25 11:54:00;;;;;;;534.60;475.80;;;26.00;99.90;;;;;;8283896;28;20165;-63
2021/07/25 11:58:10;;;;;;;535.15;476.33;;;25.30;99.90;;;;;;8261400;28;20481;-64
2021/07/25 12:02:11;;;;;;;;;;;25.20;99.90;;;;;;8279477;28;20701;-64
2021/07/25 12:06:12;;;;;;;531.00;441.35;;;23.90;99.90;;;;;;8251005;28;19910;-63
2021/07/25 12:10:12;;;;;;;526.40;437.75;;;23.50;99.90;;;;;;8291135;28;20038;-63
2021/07/25 12:14:13;;;;;;;529.83;427.73;;;23.30;99.90;;;;;;8305031;28;20037;-63
2021/07/25 12:18:13;;;;;;;509.88;390.90;;;22.60;99.90;;;;;;8300619;28;20477;-63
2021/07/25 12:22:16;;;;;;;506.77;391.30;;;21.80;99.90;;;;;;8292203;28;20033;-63
2021/07/25 12:26:36;;;;;;;502.90;385.88;;;21.60;99.90;;;;;;8286987;28;20048;-63
2021/07/25 12:30:55;;;;;;;546.50;485.83;;;21.40;99.90;;;;;;8276446;28;20030;-63
2021/07/25 12:35:12;;;;;;;536.28;464.48;;;21.70;99.90;;;;;;8288596;28;20022;-63
2021/07/25 12:39:20;;;;;;;573.63;512.00;;;22.00;99.90;;;;;;8278195;28;20099;-63
2021/07/25 12:43:26;;;;;;;541.60;481.60;;;22.20;99.90;;;;;;8274377;28;20663;-63
2021/07/25 12:47:28;;;;;;;513.90;398.52;;;22.40;99.90;;;;;;8262000;28;20026;-62
2021/07/25 12:51:41;;;;;;;513.65;391.60;;;22.00;99.90;;;;;;8277938;28;20500;-63
2021/07/25 12:55:45;;;;;;;514.35;387.88;;;22.30;99.90;;;;;;8280736;28;20033;-63
2021/07/25 12:59:45;;;;;;;514.70;381.15;;;22.30;99.90;;;;;;8290676;28;20060;-62
2021/07/25 13:03:52;;;;;;;509.77;374.80;;;21.70;99.90;;;;;;8289669;28;20021;-63
2021/07/25 13:07:52;;;;;;;507.88;375.75;;;21.20;99.90;;;;;;8271041;28;20030;-62
2021/07/25 13:11:55;;;;;;;509.17;377.30;;;20.90;99.90;;;;;;8288435;28;20459;-63
2021/07/25 13:15:55;;;;;;;511.25;395.38;;;21.10;99.90;;;;;;8289412;28;20030;-63
2021/07/25 13:19:56;;;;;;;521.45;422.45;;;21.70;99.90;;;;;;8260122;28;20040;-62
2021/07/25 13:23:57;;;;;;;521.70;430.40;;;21.80;99.90;;;;;;8277641;28;20034;-63
2021/07/25 13:27:57;;;;;;;558.97;497.42;;;21.60;99.90;;;;;;8276783;28;20106;-63
2021/07/25 13:31:58;;;;;;;560.00;499.00;;;21.60;99.90;;;;;;8272682;28;20066;-63
2021/07/25 13:36:00;;;;;;;553.72;491.55;;;21.50;99.90;;;;;;8257665;28;20025;-63
2021/07/25 13:40:01;;;;;;;560.28;500.88;;;21.60;99.90;;;;;;8282899;28;20030;-63
2021/07/25 13:44:01;;;;;;;593.67;533.38;;;21.70;99.90;;;;;;8262144;28;20060;-63
2021/07/25 13:48:02;;;;;;;585.47;523.53;;;21.70;99.90;;;;;;8255955;28;20035;-64
2021/07/25 13:52:03;;;;;;;584.15;524.33;;;21.60;99.90;;;;;;8259947;28;20025;-63
2021/07/25 13:56:04;;;;;;;557.88;497.98;;;21.40;99.90;;;;;;8275513;28;20442;-63
2021/07/25 14:00:06;;;;;;;548.35;483.17;;;21.20;99.90;;;;;;8269699;28;20100;-62
2021/07/25 14:04:06;;;;;;;546.53;475.98;;;21.00;99.90;;;;;;8282095;28;20427;-63
2021/07/25 14:08:07;;;;;;;537.40;465.67;;;20.80;99.90;;;;;;8277952;28;20076;-62
2021/07/25 14:12:08;;;;;;;553.80;493.52;;;20.80;99.90;;;;;;8261037;28;20440;-62
2021/07/25 14:16:26;;;;;;;570.92;509.80;;;20.60;99.90;;;;;;8265238;28;20041;-62
2021/07/25 14:20:28;;;;;;;506.77;415.30;;;20.50;99.90;;;;;;8272517;28;20034;-62
2021/07/25 14:24:29;;;;;;;484.73;373.33;;;20.40;99.90;;;;;;8274116;28;20034;-62
2021/07/25 14:28:29;;;;;;;449.88;318.70;;;20.10;99.90;;;;;;8270707;28;20125;-62
2021/07/25 14:32:30;;;;;;;490.80;368.88;;;20.00;99.90;;;;;;8270445;28;20649;-63
2021/07/25 14:36:31;;;;;;;498.80;411.40;;;20.10;99.90;;;;;;8272288;28;20023;-62
2021/07/25 14:40:31;;;;;;;475.17;359.25;;;20.00;99.90;;;;;;8265833;28;20040;-62
2021/07/25 14:44:32;;;;;;;531.90;434.25;;;20.30;99.90;;;;;;8255658;28;20022;-62
2021/07/25 14:48:32;;;;;;;538.13;450.95;;;20.20;99.90;;;;;;8274216;28;20040;-62
2021/07/25 14:52:37;;;;;;;555.40;494.25;;;20.10;99.90;;;;;;8277509;28;20373;-62
2021/07/25 14:56:41;;;;;;;544.72;475.02;;;20.20;99.90;;;;;;8259781;28;20026;-62
2021/07/25 15:00:42;;;;;;;526.53;466.27;;;20.60;99.90;;;;;;8271550;28;20048;-62
2021/07/25 15:04:43;;;;;;;569.40;507.75;;;21.00;99.90;;;;;;8268272;28;20118;-62
2021/07/25 15:08:44;;;;;;;569.17;508.60;;;21.60;99.90;;;;;;8259817;28;20035;-63
2021/07/25 15:12:44;;;;;;;277.27;262.20;;;23.10;99.90;;;;;;8275179;28;20458;-63
2021/07/25 15:16:45;;;;;;;297.48;280.25;;;25.20;99.90;;;;;;8273769;28;20038;-63
2021/07/25 15:20:46;;;;;;;283.33;267.40;;;28.50;99.90;;;;;;8275448;28;20075;-63
2021/07/25 15:24:46;;;;;;;276.33;260.65;;;29.40;99.90;;;;;;8269771;28;20171;-63
2021/07/25 15:28:47;;;;;;;266.25;251.57;;;30.10;99.90;;;;;;8290515;28;20583;-64
2021/07/25 15:32:48;;;;;;;266.70;251.60;;;32.10;99.90;;;;;;8255848;28;20650;-64
2021/07/25 15:36:48;;;;;;;261.55;247.23;;;32.60;99.90;;;;;;8276298;28;20022;-64
2021/07/25 15:40:49;;;;;;;242.52;229.38;;;33.70;97.50;;;;;;8275889;28;20055;-63
2021/07/25 15:44:49;;;;;;;267.55;252.82;;;34.50;93.60;;;;;;8278038;28;20049;-64
2021/07/25 15:48:50;;;;;;;266.42;251.85;;;34.00;92.20;;;;;;8275172;28;20033;-63
2021/07/25 15:52:51;;;;;;;289.92;274.17;;;34.10;91.60;;;;;;8258711;28;20105;-63
2021/07/25 15:56:51;;;;;;;277.58;262.33;;;34.10;90.40;;;;;;8270797;28;20532;-63
2021/07/25 16:00:52;;;;;;;271.65;256.88;;;31.90;93.80;;;;;;8271406;28;20054;-63
2021/07/25 16:04:53;;;;;;;262.33;248.00;;;30.10;97.20;;;;;;8290930;28;20037;-63
2021/07/25 16:08:54;;;;;;;212.90;201.57;;;27.70;99.90;;;;;;8294154;28;20053;-63
2021/07/25 16:12:55;;;;;;;159.85;151.18;;;26.00;99.90;;;;;;8295705;28;20026;-63
2021/07/25 16:16:55;;;;;;;153.05;145.02;;;25.20;99.90;;;;;;8292483;28;20145;-62
2021/07/25 16:20:57;;;;;;;46.45;43.90;;;24.60;99.90;;;;;;8290994;28;20040;-62
2021/07/25 16:24:57;;;;;;;;;;;24.10;99.90;;;;;;8282613;28;20030;-63
2021/07/25 16:28:58;;;;;;;;;;;23.60;99.90;;;;;;8282388;28;19909;-63
2021/07/25 16:32:58;;;;;;;;;;;23.40;99.90;;;;;;8281636;28;20280;-63
2021/07/25 16:36:59;;;;;;;;;;;23.30;99.90;;;;;;8288146;28;19917;-63
2021/07/25 16:40:59;;;;;;;;;;;23.60;99.90;;;;;;8288365;28;19953;-63
2021/07/25 16:45:00;;;;;;;;;;;24.50;99.90;;;;;;8287923;28;19914;-63
2021/07/25 16:49:00;;;;;;;;;;;24.20;99.90;;;;;;8262229;28;20265;-63
2021/07/25 16:53:01;;;;;;;;;;;23.60;99.90;;;;;;8285567;28;19909;-63
2021/07/25 16:57:03;;;;;;;;;;;23.10;99.90;;;;;;8289217;28;19952;-63
2021/07/25 17:01:04;;;;;;;;;;;22.90;99.90;;;;;;8260446;28;19987;-63
2021/07/25 17:05:05;;;;;;;;;;;22.90;99.90;;;;;;8290700;28;20276;-63
2021/07/25 17:09:05;;;;;;;6.17;3.90;;;24.20;99.90;;;;;;8256792;28;20428;-63
2021/07/25 17:13:07;;;;;;;5.55;4.10;;;27.30;99.90;;;;;;8260634;28;20101;-63
2021/07/25 17:17:07;;;;;;;4.20;3.55;;;29.80;99.90;;;;;;8263000;28;20036;-63
2021/07/25 17:21:09;;;;;;;5.78;3.63;;;30.10;99.90;;;;;;8250121;28;20536;-63
2021/07/25 17:25:09;;;;;;;4.82;3.45;;;30.30;99.90;;;;;;8270673;28;20044;-63
2021/07/25 17:29:10;;;;;;;5.18;3.65;;;30.50;99.90;;;;;;8266839;28;20269;-63
2021/07/25 17:33:11;;;;;;;4.82;3.65;;;28.70;99.90;;;;;;8272830;28;20447;-64
2021/07/25 17:37:11;;;;;;;5.95;4.10;;;27.20;99.90;;;;;;8271993;28;20113;-63
2021/07/25 17:41:16;;;;;;;5.68;3.97;;;25.40;99.90;;;;;;8255915;28;20109;-63
2021/07/25 17:45:17;;;;;;;9.88;4.10;;;24.00;99.90;;;;;;8273008;28;20041;-63
2021/07/25 17:49:17;;;;;;;362.15;322.45;;;23.00;99.90;;;;;;8273668;28;20045;-63
2021/07/25 17:53:18;;;;;;;45.72;20.73;;;22.30;99.90;;;;;;8272127;28;20022;-63
2021/07/25 17:57:19;;;;;;;555.53;502.90;;;21.80;99.90;;;;;;8255693;28;20117;-63
2021/07/25 18:01:19;;;;;;;530.30;399.45;;;21.70;99.90;;;;;;8272841;28;20073;-63
2021/07/25 18:05:20;;;;;;;448.63;399.80;;;21.70;99.90;;;;;;8273582;28;20503;-63
2021/07/25 18:09:22;;;;;;;465.15;368.38;;;21.80;99.90;;;;;;8273167;28;20061;-63
2021/07/25 18:13:22;;;;;;;493.95;362.65;;;21.30;99.90;;;;;;8255213;28;20049;-63
2021/07/25 18:17:23;;;;;;;470.20;353.25;;;20.80;99.90;;;;;;8274628;28;20025;-63
2021/07/25 18:21:24;;;;;;;350.67;305.30;;;20.60;99.90;;;;;;8288827;28;20496;-63
2021/07/25 18:25:25;;;;;;;493.83;353.15;;;20.40;99.90;;;;;;8283765;28;20042;-63
2021/07/25 18:29:26;;;;;;;337.33;272.90;;;20.30;99.90;;;;;;8289242;28;20377;-63
2021/07/25 18:33:29;;;;;;;379.40;279.73;;;20.10;99.90;;;;;;8277607;28;20030;-63
2021/07/25 18:37:29;;;;;;;8.02;5.95;;;19.90;99.90;;;;;;8273241;28;20022;-63
2021/07/25 18:41:30;;;;;;;6.28;5.05;;;19.80;99.90;;;;;;8277716;28;20041;-63
2021/07/25 18:45:31;;;;;;;6.53;4.47;;;19.60;99.90;;;;;;8281799;28;20033;-63
2021/07/25 18:49:31;;;;;;;6.60;5.15;;;19.30;99.90;;;;;;8274078;28;20030;-63
2021/07/25 18:53:32;;;;;;;489.33;348.90;;;19.20;99.90;;;;;;8269714;28;20104;-63
2021/07/25 18:57:33;;;;;;;146.77;133.82;;;19.10;99.90;;;;;;8271086;28;20074;-63
2021/07/25 19:01:34;;;;;;;360.13;290.38;;;19.00;99.90;;;;;;8277511;28;20030;-63
2021/07/25 19:05:35;;;;;;;128.82;116.82;;;18.80;99.90;;;;;;8261955;28;20037;-64
2021/07/25 19:09:36;;;;;;;481.63;354.38;;;18.70;99.90;;;;;;8280462;28;20502;-65
2021/07/25 19:13:36;;;;;;;427.88;276.23;;;18.50;99.90;;;;;;8285652;28;20030;-66
2021/07/25 19:17:37;;;;;;;78.22;74.03;;;18.30;99.90;;;;;;8274580;28;20030;-65
2021/07/25 19:21:38;;;;;;;70.07;66.30;;;18.30;99.90;;;;;;8272682;28;20031;-63
2021/07/25 19:25:41;;;;;;;65.65;62.10;;;18.10;99.90;;;;;;8254173;28;20465;-63
2021/07/25 19:29:41;;;;;;;234.10;167.77;;;17.80;99.90;;;;;;8276457;28;20030;-63
2021/07/25 19:33:43;;;;;;;518.33;347.67;;;17.70;99.90;;;;;;8272773;28;20108;-63
2021/07/25 19:37:44;;;;;;;520.28;333.35;;;17.60;99.90;;;;;;8283280;28;20072;-69
2021/07/25 19:41:45;;;;;;;518.58;334.63;;;17.60;99.90;;;;;;8273306;28;20042;-68
2021/07/25 19:45:45;;;;;;;513.42;329.70;;;17.30;99.90;;;;;;8274895;28;20076;-63
2021/07/25 19:49:46;;;;;;;369.58;246.77;;;17.40;99.90;;;;;;8258765;28;20026;-64
2021/07/25 19:53:46;;;;;;;514.50;322.23;;;17.60;99.90;;;;;;8278977;28;20060;-64
2021/07/25 19:57:47;;;;;;;65.47;61.80;;;17.30;99.90;;;;;;8275763;28;20095;-64
2021/07/25 20:01:48;;;;;;;91.90;83.15;;;17.20;99.90;;;;;;8277273;28;20033;-63
2021/07/25 20:05:48;;;;;;;365.38;243.50;;;17.30;99.90;;;;;;8277719;28;20038;-63
2021/07/25 20:09:49;;;;;;;507.30;340.00;;;17.60;99.90;;;;;;8280177;28;20467;-63